Time;durP1;ratioP1;P1;durP2;ratioP2;P2;SDS_P1;SDS_P2;PMS_P1;PMS_P2;Temp;Humidity;BMP_temperature;BMP_pressure;BME280_temperature;BME280_humidity;BME280_pressure;Samples;Min_cycle;Max_cycle;Signal;HPM_P1;HPM_P2
2021/07/12 00:00:14;;;;;;;15.77;12.93;;;;;;;20.93;73.70;100090.69;5088413;28;20154;-69
2021/07/12 00:02:41;;;;;;;18.83;13.93;;;;;;;20.95;73.63;100102.06;5086927;28;20391;-69
2021/07/12 00:05:10;;;;;;;19.20;13.73;;;;;;;21.00;73.15;100097.00;5088120;28;20411;-69
2021/07/12 00:07:41;;;;;;;17.42;14.18;;;;;;;21.00;73.06;100096.16;5087059;28;20048;-72
2021/07/12 00:10:10;;;;;;;18.10;13.52;;;;;;;21.02;73.24;100096.81;5087378;28;20044;-73
2021/07/12 00:12:37;;;;;;;17.85;14.73;;;;;;;20.95;73.25;100094.03;5088050;28;20048;-73
2021/07/12 00:15:05;;;;;;;19.65;14.98;;;;;;;20.91;73.53;100097.28;5086969;28;20044;-70
2021/07/12 00:17:33;;;;;;;17.67;14.68;;;;;;;20.92;73.27;100093.56;5086760;28;20044;-69
2021/07/12 00:19:59;;;;;;;20.33;15.18;;;;;;;20.89;73.20;100100.13;5086381;28;20056;-70
2021/07/12 00:22:27;;;;;;;18.23;14.02;;;;;;;20.90;73.17;100101.78;5087507;28;20059;-71
2021/07/12 00:24:55;;;;;;;18.35;14.82;;;;;;;20.85;73.35;100106.88;5088307;28;20108;-68
2021/07/12 00:27:22;;;;;;;17.65;14.45;;;;;;;20.91;73.12;100105.31;5086693;28;20060;-69
2021/07/12 00:29:49;;;;;;;18.48;13.63;;;;;;;20.89;73.15;100100.13;5086596;28;20044;-70
2021/07/12 00:32:16;;;;;;;20.15;16.20;;;;;;;20.82;73.31;100093.81;5088510;28;20052;-69
2021/07/12 00:34:43;;;;;;;23.45;16.27;;;;;;;20.76;73.42;100095.38;5087732;28;20395;-68
2021/07/12 00:37:09;;;;;;;19.73;15.07;;;;;;;20.76;73.29;100091.84;5087362;28;20151;-68
2021/07/12 00:39:37;;;;;;;21.30;14.85;;;;;;;20.71;73.63;100092.41;5088125;28;20048;-68
2021/07/12 00:42:06;;;;;;;21.42;15.30;;;;;;;20.74;73.64;100081.31;5086751;28;20052;-68
2021/07/12 00:44:33;;;;;;;18.83;14.80;;;;;;;20.65;73.88;100086.94;5087021;28;20132;-69
2021/07/12 00:47:00;;;;;;;21.88;16.90;;;;;;;20.61;73.96;100081.09;5087272;28;20518;-68
2021/07/12 00:49:27;;;;;;;19.42;14.15;;;;;;;20.60;74.00;100085.59;5083950;28;20441;-68
2021/07/12 00:51:55;;;;;;;20.67;15.77;;;;;;;20.59;74.03;100070.50;5086280;28;20048;-67
2021/07/12 00:54:27;;;;;;;23.25;15.82;;;;;;;20.61;73.95;100081.09;5086745;28;20512;-67
2021/07/12 00:56:54;;;;;;;18.42;15.45;;;;;;;20.57;74.00;100069.84;5087011;28;20056;-69
2021/07/12 00:59:24;;;;;;;18.92;15.20;;;;;;;20.54;74.29;100069.38;5087343;28;20070;-69
2021/07/12 01:01:51;;;;;;;18.95;13.85;;;;;;;20.45;74.11;100065.91;5086750;28;20514;-67
2021/07/12 01:04:18;;;;;;;21.77;16.63;;;;;;;20.37;74.59;100066.00;5087780;28;20044;-69
2021/07/12 01:06:45;;;;;;;19.95;14.73;;;;;;;20.32;74.83;100065.72;5087191;28;20048;-69
2021/07/12 01:09:12;;;;;;;21.00;14.02;;;;;;;20.27;74.86;100062.72;5087638;28;20492;-68
2021/07/12 01:11:45;;;;;;;19.83;15.43;;;;;;;20.24;75.13;100058.56;5087100;28;20044;-70
2021/07/12 01:14:24;;;;;;;21.13;15.45;;;;;;;20.19;75.13;100047.53;5087061;28;20051;-69
2021/07/12 01:17:03;;;;;;;20.40;14.57;;;;;;;20.21;74.87;100043.66;5086733;28;20117;-69
2021/07/12 01:19:56;;;;;;;20.50;16.35;;;;;;;20.14;75.13;100036.50;5084425;28;20048;-67
2021/07/12 01:22:41;;;;;;;18.55;15.30;;;;;;;20.19;74.92;100039.50;5086890;28;20708;-69
2021/07/12 01:25:48;;;;;;;20.15;15.98;;;;;;;20.17;74.61;100038.84;5085852;28;20051;-67
2021/07/12 01:28:51;;;;;;;19.50;14.32;;;;;;;20.14;74.77;100042.69;5086754;28;20534;-68
2021/07/12 01:31:54;;;;;;;19.92;14.55;;;;;;;20.15;75.01;100048.88;5085298;28;20079;-68
2021/07/12 01:34:33;;;;;;;21.38;15.43;;;;;;;20.11;74.86;100040.38;5086149;28;20044;-68
2021/07/12 01:37:05;;;;;;;20.23;15.05;;;;;;;20.09;75.07;100042.38;5087228;28;20088;-70
2021/07/12 01:39:39;;;;;;;22.02;16.10;;;;;;;20.05;74.99;100039.22;5086636;28;20123;-68
2021/07/12 01:42:09;;;;;;;23.87;16.60;;;;;;;20.09;75.03;100036.22;5087120;28;20048;-67
2021/07/12 01:44:44;;;;;;;23.05;16.52;;;;;;;20.11;74.75;100039.53;5086172;28;20052;-68
2021/07/12 01:47:15;;;;;;;22.58;17.33;;;;;;;20.12;74.46;100038.53;5086737;28;20047;-67
2021/07/12 01:49:50;;;;;;;23.58;16.75;;;;;;;20.07;74.82;100033.69;5085030;28;20056;-68
2021/07/12 01:52:24;;;;;;;24.90;16.65;;;;;;;20.04;75.21;100032.22;5086829;28;20605;-68
2021/07/12 01:55:05;;;;;;;22.40;16.25;;;;;;;20.12;74.81;100033.19;5087404;28;20044;-68
2021/07/12 01:57:36;;;;;;;22.40;16.25;;;;;;;20.15;74.69;100039.00;5086881;28;20051;-70
2021/07/12 02:00:07;;;;;;;28.13;17.95;;;;;;;20.09;74.93;100038.88;5086894;28;20051;-67
2021/07/12 02:02:35;;;;;;;24.75;17.30;;;;;;;20.03;74.88;100030.53;5086928;28;20056;-69
2021/07/12 02:05:08;;;;;;;21.40;16.10;;;;;;;20.07;74.99;100035.56;5086344;28;20059;-66
2021/07/12 02:07:38;;;;;;;22.58;16.02;;;;;;;20.04;75.10;100029.53;5086768;28;20055;-69
2021/07/12 02:10:07;;;;;;;23.00;16.05;;;;;;;20.00;74.95;100036.25;5087143;28;20051;-70
2021/07/12 02:12:36;;;;;;;26.33;16.70;;;;;;;20.00;75.15;100033.56;5087978;28;20162;-69
2021/07/12 02:15:03;;;;;;;24.95;18.13;;;;;;;20.00;74.80;100030.88;5087112;28;20052;-68
2021/07/12 02:17:32;;;;;;;25.70;18.02;;;;;;;19.98;74.85;100032.91;5086869;28;20048;-69
2021/07/12 02:20:00;;;;;;;26.15;18.13;;;;;;;19.99;74.87;100034.59;5085385;28;20051;-69
2021/07/12 02:22:31;;;;;;;24.52;16.20;;;;;;;20.01;75.17;100029.88;5086295;28;20044;-67
2021/07/12 02:24:58;;;;;;;22.08;17.65;;;;;;;20.01;75.12;100031.75;5091609;28;20044;-71
2021/07/12 02:27:26;;;;;;;25.20;17.58;;;;;;;20.02;75.07;100036.94;5093835;28;20044;-68
2021/07/12 02:29:55;;;;;;;30.17;20.50;;;;;;;20.03;75.17;100032.41;5092316;28;20040;-68
2021/07/12 02:32:23;;;;;;;25.15;18.23;;;;;;;20.03;75.38;100041.25;5093870;28;20502;-70
2021/07/12 02:34:51;;;;;;;28.77;19.23;;;;;;;20.04;75.57;100048.31;5098050;28;20040;-70
2021/07/12 02:37:19;;;;;;;26.60;19.77;;;;;;;20.14;75.14;100048.06;5097977;28;20040;-70
2021/07/12 02:39:53;;;;;;;23.63;19.73;;;;;;;20.08;75.53;100042.56;5092232;28;20043;-69
2021/07/12 02:42:21;;;;;;;23.20;20.38;;;;;;;20.10;75.69;100045.94;5090207;28;20131;-73
2021/07/12 02:44:50;;;;;;;37.17;25.52;;;;;;;20.09;75.62;100046.94;5092032;28;20044;-69
2021/07/12 02:47:17;;;;;;;29.80;23.70;;;;;;;20.06;75.65;100045.44;5090124;28;20051;-73
2021/07/12 02:49:45;;;;;;;33.20;25.25;;;;;;;20.08;75.60;100046.09;5090252;28;20405;-68
2021/07/12 02:52:21;;;;;;;33.47;25.20;;;;;;;20.07;75.77;100035.56;5091026;28;20103;-69
2021/07/12 02:54:53;;;;;;;31.75;24.95;;;;;;;20.02;76.18;100028.03;5091485;28;20040;-69
2021/07/12 02:57:20;;;;;;;27.60;20.88;;;;;;;20.00;76.34;100024.69;5090115;28;20117;-68
2021/07/12 02:59:48;;;;;;;24.67;20.08;;;;;;;20.07;75.75;100025.66;5088061;28;20044;-70
2021/07/12 03:02:15;;;;;;;25.27;20.35;;;;;;;20.18;75.49;100019.88;5091359;28;20055;-70
2021/07/12 03:04:42;;;;;;;26.88;18.67;;;;;;;20.16;75.58;100024.56;5090990;28;20040;-68
2021/07/12 03:07:18;;;;;;;22.50;16.05;;;;;;;20.19;75.44;100028.75;5090040;28;20051;-67
2021/07/12 03:09:49;;;;;;;24.00;16.27;;;;;;;20.22;75.27;100018.50;5091304;28;20047;-72
2021/07/12 03:12:23;;;;;;;23.60;17.75;;;;;;;20.25;75.37;100020.81;5089824;28;20044;-67
2021/07/12 03:14:56;;;;;;;37.33;25.70;;;;;;;20.33;75.17;100019.94;5089866;28;20496;-66
2021/07/12 03:17:26;;;;;;;31.83;24.85;;;;;;;20.28;75.21;100016.97;5089075;28;20044;-69
2021/07/12 03:19:56;;;;;;;30.20;24.25;;;;;;;20.27;75.03;100023.31;5087618;28;20051;-66
2021/07/12 03:22:24;;;;;;;27.98;20.23;;;;;;;20.31;74.99;100015.75;5089748;28;20048;-68
2021/07/12 03:24:51;;;;;;;24.33;17.55;;;;;;;20.35;74.74;100017.06;5088527;28;20092;-67
2021/07/12 03:27:22;;;;;;;20.40;17.45;;;;;;;20.38;74.86;100022.91;5089005;28;20048;-70
2021/07/12 03:29:50;;;;;;;21.05;17.92;;;;;;;20.40;74.99;100025.38;5088639;28;20105;-70
2021/07/12 03:32:23;;;;;;;72.82;35.45;;;;;;;20.54;74.34;100021.09;5088111;28;20059;-69
2021/07/12 03:34:51;;;;;;;24.40;17.08;;;;;;;20.60;74.02;100021.19;5090351;28;20040;-70
2021/07/12 03:37:20;;;;;;;24.15;18.42;;;;;;;20.64;74.29;100024.38;5088789;28;20082;-70
2021/07/12 03:39:48;;;;;;;25.80;18.42;;;;;;;20.69;74.08;100023.81;5089335;28;20055;-71
2021/07/12 03:42:17;;;;;;;26.17;18.58;;;;;;;20.76;74.00;100030.97;5089226;28;20048;-68
2021/07/12 03:44:46;;;;;;;24.00;18.25;;;;;;;20.82;73.92;100037.47;5088278;28;20071;-69
2021/07/12 03:47:25;;;;;;;25.48;20.00;;;;;;;20.87;73.49;100034.22;5089826;28;20051;-68
2021/07/12 03:49:55;;;;;;;24.70;19.58;;;;;;;20.90;73.31;100034.66;5086840;28;20055;-68
2021/07/12 03:52:23;;;;;;;24.02;20.17;;;;;;;20.88;72.85;100041.25;5087956;28;20045;-69
2021/07/12 03:54:50;;;;;;;19.85;13.68;;;;;;;20.83;73.03;100035.59;5088638;28;20113;-67
2021/07/12 03:57:17;;;;;;;16.92;15.18;;;;;;;20.83;72.94;100030.22;5088913;28;20059;-70
2021/07/12 03:59:45;;;;;;;20.88;13.80;;;;;;;20.83;72.98;100023.00;5088742;28;20040;-70
2021/07/12 04:02:12;;;;;;;20.23;14.60;;;;;;;20.90;72.82;100036.53;5087973;28;20048;-68
2021/07/12 04:04:39;;;;;;;15.80;14.02;;;;;;;20.93;72.35;100036.16;5089932;28;20052;-68
2021/07/12 04:07:06;;;;;;;15.50;12.85;;;;;;;21.01;72.76;100036.06;5087573;28;20079;-68
2021/07/12 04:09:33;;;;;;;15.65;13.00;;;;;;;21.15;72.13;100029.03;5088716;28;20048;-68
2021/07/12 04:12:01;;;;;;;14.50;12.38;;;;;;;21.19;72.07;100028.50;5088805;28;20048;-71
2021/07/12 04:14:28;;;;;;;16.02;13.10;;;;;;;21.26;71.78;100028.56;5087751;28;20052;-68
2021/07/12 04:16:56;;;;;;;14.70;13.20;;;;;;;21.24;71.66;100029.78;5087464;28;20067;-66
2021/07/12 04:19:23;;;;;;;13.60;11.25;;;;;;;21.29;71.71;100030.06;5086823;28;20048;-66
2021/07/12 04:21:50;;;;;;;13.63;12.18;;;;;;;21.37;71.64;100027.25;5087423;28;20058;-69
2021/07/12 04:24:17;;;;;;;17.20;12.50;;;;;;;21.48;71.09;100029.50;5088823;28;20103;-68
2021/07/12 04:26:44;;;;;;;15.10;13.30;;;;;;;21.60;71.08;100026.34;5088990;28;20571;-70
2021/07/12 04:29:11;;;;;;;21.70;15.38;;;;;;;21.68;71.02;100018.13;5087871;28;20044;-67
2021/07/12 04:31:38;;;;;;;15.65;12.98;;;;;;;21.77;70.82;100017.03;5089132;28;20059;-68
2021/07/12 04:34:06;;;;;;;17.85;12.85;;;;;;;21.77;70.53;100017.03;5088896;28;20051;-67
2021/07/12 04:36:33;;;;;;;17.42;12.45;;;;;;;21.85;70.27;100019.59;5089808;28;20044;-66
2021/07/12 04:39:00;;;;;;;22.15;14.27;;;;;;;21.89;70.48;100015.47;5088890;28;20043;-67
2021/07/12 04:41:27;;;;;;;15.57;12.52;;;;;;;21.94;70.41;100018.44;5088161;28;20400;-67
2021/07/12 04:43:54;;;;;;;14.65;13.00;;;;;;;22.09;70.39;100020.22;5088298;28;20052;-69
2021/07/12 04:46:21;;;;;;;13.20;11.77;;;;;;;22.30;69.65;100017.56;5088646;28;20040;-70
2021/07/12 04:48:48;;;;;;;14.52;12.13;;;;;;;22.65;68.62;100014.97;5087515;28;20043;-72
2021/07/12 04:51:16;;;;;;;14.55;11.38;;;;;;;23.37;66.37;100003.97;5087365;28;20051;-68
2021/07/12 04:53:43;;;;;;;16.05;11.85;;;;;;;23.95;64.90;100004.41;5088776;28;20043;-74
2021/07/12 04:56:10;;;;;;;15.07;11.13;;;;;;;24.36;63.58;99994.44;5088549;28;20051;-70
2021/07/12 04:58:43;;;;;;;33.10;29.92;;;;;;;24.76;62.99;99994.47;5089980;28;20059;-77
2021/07/12 05:01:10;;;;;;;11.73;9.07;;;;;;;25.16;61.73;99997.06;5093523;28;20079;-71
2021/07/12 05:03:39;;;;;;;11.73;10.32;;;;;;;25.38;60.85;99993.03;5089621;28;20048;-73
2021/07/12 05:06:06;;;;;;;11.65;8.57;;;;;;;25.40;60.85;99986.59;5090923;28;20044;-73
2021/07/12 05:08:34;;;;;;;11.65;9.32;;;;;;;25.60;60.52;99991.88;5090407;28;20055;-72
2021/07/12 05:11:01;;;;;;;13.75;9.85;;;;;;;25.65;60.12;99992.91;5087696;28;20618;-72
2021/07/12 05:13:31;;;;;;;13.38;10.57;;;;;;;25.81;59.57;99982.63;5088330;28;20614;-78
2021/07/12 05:15:58;;;;;;;14.02;9.48;;;;;;;25.96;58.87;99983.16;5087762;28;20518;-76
2021/07/12 05:18:25;;;;;;;10.88;8.63;;;;;;;26.17;58.72;99989.28;5086759;28;20044;-74
2021/07/12 05:20:52;;;;;;;11.13;9.05;;;;;;;26.44;58.09;99990.69;5089923;28;20075;-77
2021/07/12 05:23:19;;;;;;;11.70;8.35;;;;;;;26.50;57.45;99991.69;5093449;28;20044;-72
2021/07/12 05:25:48;;;;;;;16.75;8.82;;;;;;;26.56;57.64;99988.09;5091821;28;20044;-71
2021/07/12 05:28:15;;;;;;;9.95;8.93;;;;;;;26.82;56.75;99983.50;5090061;28;20056;-75
2021/07/12 05:30:42;;;;;;;9.98;7.57;;;;;;;26.82;56.56;99986.19;5089364;28;20058;-78
2021/07/12 05:33:10;;;;;;;17.65;9.13;;;;;;;26.79;56.50;99987.47;5087882;28;20080;-78
2021/07/12 05:35:38;;;;;;;12.50;9.10;;;;;;;26.89;56.79;99984.25;5089527;28;20059;-76
2021/07/12 05:38:05;;;;;;;11.50;8.52;;;;;;;27.08;56.03;99985.06;5090744;28;20044;-75
2021/07/12 05:40:32;;;;;;;12.10;9.55;;;;;;;27.25;55.72;99986.09;5089604;28;20538;-79
2021/07/12 05:43:02;;;;;;;11.77;8.80;;;;;;;27.55;55.04;99985.34;5088976;28;20044;-80
2021/07/12 05:45:32;;;;;;;9.80;8.80;;;;;;;27.76;54.62;99986.72;5091206;28;20044;-74
2021/07/12 05:48:00;;;;;;;10.98;8.40;;;;;;;28.22;53.92;99981.66;5093280;28;20165;-78
2021/07/12 05:50:28;;;;;;;11.02;9.30;;;;;;;28.21;53.34;99980.00;5094376;28;20058;-79
2021/07/12 05:52:55;;;;;;;12.02;8.70;;;;;;;28.32;53.39;99981.88;5057300;28;20139;-78
2021/07/12 05:55:22;;;;;;;9.90;7.95;;;;;;;28.54;52.92;99987.63;5089110;28;20044;-74
2021/07/12 05:57:49;;;;;;;12.55;9.85;;;;;;;28.68;52.06;99985.47;5088358;28;20059;-71
2021/07/12 06:00:18;;;;;;;9.85;8.48;;;;;;;28.63;52.38;99987.25;5089402;28;20044;-73
2021/07/12 06:02:47;;;;;;;12.82;8.68;;;;;;;28.46;52.43;99974.34;5089205;28;20036;-80
2021/07/12 06:05:15;;;;;;;12.63;10.00;;;;;;;27.88;53.78;99978.63;5088822;28;20097;-76
2021/07/12 06:07:44;;;;;;;12.45;8.73;;;;;;;27.24;55.73;99984.47;5090755;28;20040;-77
2021/07/12 06:10:13;;;;;;;11.73;9.80;;;;;;;26.66;57.26;99983.00;5091430;28;20048;-80
2021/07/12 06:12:40;;;;;;;10.27;8.82;;;;;;;26.17;58.69;99978.44;5070045;28;20040;-72
2021/07/12 06:15:08;;;;;;;11.23;10.02;;;;;;;25.81;59.74;99979.91;5091663;28;20050;-69
2021/07/12 06:17:38;;;;;;;11.25;10.05;;;;;;;25.70;60.15;99971.44;5091435;28;20063;-71
2021/07/12 06:20:07;;;;;;;13.80;10.57;;;;;;;25.70;60.04;99970.63;5091033;28;20048;-74
2021/07/12 06:22:34;;;;;;;12.40;10.73;;;;;;;25.66;60.61;99972.09;5090542;28;20055;-78
2021/07/12 06:25:01;;;;;;;11.00;9.43;;;;;;;25.70;60.62;99963.31;5094402;28;20052;-75
2021/07/12 06:27:27;;;;;;;13.73;10.40;;;;;;;25.76;60.17;99972.44;5094183;28;20056;-77
2021/07/12 06:29:56;;;;;;;14.40;10.77;;;;;;;25.94;60.16;99977.13;5092743;28;20755;-76
2021/07/12 06:32:22;;;;;;;11.07;9.80;;;;;;;26.40;59.15;99967.81;5092476;28;20147;-74
2021/07/12 06:34:51;;;;;;;11.70;10.15;;;;;;;27.09;57.14;99971.28;5088410;28;20271;-72
2021/07/12 06:37:17;;;;;;;14.00;10.55;;;;;;;27.63;56.03;99968.72;5088309;28;20048;-70
2021/07/12 06:39:44;;;;;;;13.77;11.63;;;;;;;27.92;55.35;99966.25;5090927;28;20044;-73
2021/07/12 06:42:11;;;;;;;13.68;11.43;;;;;;;28.01;55.09;99967.56;5090570;28;20040;-77
2021/07/12 06:44:38;;;;;;;13.18;10.73;;;;;;;28.07;54.50;99957.66;5089360;28;20244;-78
2021/07/12 06:47:05;;;;;;;13.40;11.95;;;;;;;28.02;55.00;99966.53;5087844;28;20119;-77
2021/07/12 06:49:32;;;;;;;13.45;11.32;;;;;;;27.93;55.40;99959.78;5087815;28;20044;-76
2021/07/12 06:52:00;;;;;;;12.40;10.88;;;;;;;27.57;56.25;99958.00;5088647;28;20048;-75
2021/07/12 06:54:27;;;;;;;12.23;11.02;;;;;;;27.03;58.47;99965.97;5088667;28;20056;-72
2021/07/12 06:56:54;;;;;;;15.27;10.10;;;;;;;26.80;59.33;99967.44;5089737;28;20048;-71
2021/07/12 06:59:21;;;;;;;14.20;10.65;;;;;;;26.65;59.81;99970.53;5089109;28;20571;-71
2021/07/12 07:01:48;;;;;;;13.13;11.48;;;;;;;26.54;59.86;99973.91;5084289;28;20078;-75
2021/07/12 07:04:16;;;;;;;14.52;13.02;;;;;;;26.54;60.08;99973.09;5084857;28;20048;-78
2021/07/12 07:06:43;;;;;;;13.05;10.73;;;;;;;26.51;60.26;99977.91;5085411;28;20044;-73
2021/07/12 07:09:11;;;;;;;12.25;10.77;;;;;;;26.61;60.47;99968.47;5084125;28;20508;-73
2021/07/12 07:11:38;;;;;;;14.77;13.02;;;;;;;26.63;60.06;99975.34;5085443;28;20048;-77
2021/07/12 07:14:05;;;;;;;15.25;10.38;;;;;;;26.64;60.38;99974.28;5086614;28;20055;-75
2021/07/12 07:16:32;;;;;;;14.45;12.05;;;;;;;26.91;60.03;99974.00;5087225;28;20040;-76
2021/07/12 07:18:59;;;;;;;11.65;10.45;;;;;;;26.99;59.83;99971.00;5083969;28;20056;-71
2021/07/12 07:21:26;;;;;;;12.00;10.80;;;;;;;27.11;59.45;99973.78;5090470;28;20044;-73
2021/07/12 07:23:52;;;;;;;11.77;10.55;;;;;;;27.18;59.23;99966.38;5091194;28;20151;-77
2021/07/12 07:26:22;;;;;;;12.90;11.60;;;;;;;27.31;58.73;99967.31;5090225;28;20048;-72
2021/07/12 07:28:49;;;;;;;14.68;11.73;;;;;;;27.21;58.88;99959.69;5089774;28;20515;-68
2021/07/12 07:31:16;;;;;;;14.32;11.32;;;;;;;27.33;59.16;99959.78;5089062;28;20062;-70
2021/07/12 07:33:43;;;;;;;13.50;11.15;;;;;;;27.49;59.14;99958.31;5089350;28;20082;-72
2021/07/12 07:36:10;;;;;;;12.63;10.10;;;;;;;27.65;58.28;99947.63;5087430;28;20055;-75
2021/07/12 07:38:38;;;;;;;12.13;10.90;;;;;;;27.85;58.18;99949.22;5091783;28;20051;-79
2021/07/12 07:41:05;;;;;;;15.70;10.90;;;;;;;28.23;57.24;99945.28;5090648;28;20044;-72
2021/07/12 07:43:33;;;;;;;13.75;11.98;;;;;;;28.74;56.47;99946.50;5089755;28;20139;-71
2021/07/12 07:46:00;;;;;;;14.48;12.85;;;;;;;29.02;55.31;99944.88;5090566;28;20044;-78
2021/07/12 07:48:27;;;;;;;12.80;11.38;;;;;;;29.22;54.57;99944.50;5088004;28;20502;-76
2021/07/12 07:50:54;;;;;;;15.82;11.60;;;;;;;29.26;54.24;99933.97;5089630;28;20040;-75
2021/07/12 07:53:20;;;;;;;11.93;10.70;;;;;;;29.22;54.29;99930.91;5089502;28;20040;-70
2021/07/12 07:55:47;;;;;;;12.50;10.32;;;;;;;29.34;54.74;99930.88;5089599;28;20040;-74
2021/07/12 07:58:14;;;;;;;13.63;12.32;;;;;;;29.40;55.04;99932.59;5087890;28;20055;-79
2021/07/12 08:00:42;;;;;;;16.85;13.48;;;;;;;29.60;54.56;99934.03;5087968;28;20614;-70
2021/07/12 08:03:10;;;;;;;11.65;9.68;;;;;;;29.95;53.36;99928.44;5086948;28;20051;-75
2021/07/12 08:05:38;;;;;;;13.20;10.57;;;;;;;30.19;52.57;99925.53;5086700;28;20144;-71
2021/07/12 08:08:05;;;;;;;11.85;10.80;;;;;;;30.06;52.40;99932.16;5086438;28;20103;-77
2021/07/12 08:10:32;;;;;;;13.18;10.45;;;;;;;29.95;52.62;99920.25;5086501;28;20047;-76
2021/07/12 08:12:59;;;;;;;10.98;9.88;;;;;;;30.09;51.87;99920.75;5086728;28;20063;-74
2021/07/12 08:15:26;;;;;;;12.82;11.63;;;;;;;30.34;51.98;99919.50;5089736;28;20044;-73
2021/07/12 08:17:54;;;;;;;13.27;10.80;;;;;;;30.72;51.66;99909.66;5087385;28;20048;-72
2021/07/12 08:20:21;;;;;;;12.18;10.55;;;;;;;30.91;50.39;99912.91;5086014;28;20044;-78
2021/07/12 08:22:51;;;;;;;16.85;11.35;;;;;;;30.89;50.05;99913.16;5087178;28;20210;-78
2021/07/12 08:25:18;;;;;;;15.85;11.15;;;;;;;30.85;50.38;99912.03;5086173;28;20048;-72
2021/07/12 08:27:46;;;;;;;13.93;11.07;;;;;;;30.87;50.15;99915.31;5085409;28;20064;-73
2021/07/12 08:30:15;;;;;;;15.32;10.60;;;;;;;30.97;49.73;99912.75;5086849;28;20121;-74
2021/07/12 08:32:44;;;;;;;11.65;10.55;;;;;;;31.15;49.35;99908.03;5086223;28;20642;-68
2021/07/12 08:35:14;;;;;;;15.05;11.15;;;;;;;31.32;48.95;99911.50;5091344;28;20138;-74
2021/07/12 08:37:41;;;;;;;12.63;11.32;;;;;;;31.45;48.30;99908.34;5090306;28;20087;-81
2021/07/12 08:40:10;;;;;;;11.65;10.50;;;;;;;31.63;47.89;99906.38;5089535;28;20043;-76
2021/07/12 08:42:37;;;;;;;10.55;9.30;;;;;;;31.81;47.83;99907.88;5086994;28;20048;-77
2021/07/12 08:45:06;;;;;;;10.25;9.20;;;;;;;31.86;47.43;99898.94;5088312;28;20055;-72
2021/07/12 08:47:33;;;;;;;11.82;10.15;;;;;;;31.86;47.69;99899.75;5091394;28;20054;-78
2021/07/12 08:50:00;;;;;;;10.07;9.18;;;;;;;31.95;46.47;99892.69;5087327;28;20051;-75
2021/07/12 08:52:35;;;;;;;11.05;9.95;;;;;;;31.89;47.25;99898.38;5093336;28;20048;-79
2021/07/12 08:55:03;;;;;;;11.30;10.10;;;;;;;31.99;47.15;99903.94;5087674;28;20051;-80
2021/07/12 08:57:30;;;;;;;12.05;9.32;;;;;;;32.05;47.76;99902.91;5085593;28;20071;-75
2021/07/12 08:59:57;;;;;;;10.85;9.75;;;;;;;31.98;47.96;99903.13;5085323;28;20051;-74
2021/07/12 09:02:24;;;;;;;10.60;9.60;;;;;;;31.77;47.87;99896.66;5082741;28;20047;-76
2021/07/12 09:04:53;;;;;;;11.23;10.10;;;;;;;31.45;48.38;99902.06;5084566;28;20071;-79
2021/07/12 09:07:23;;;;;;;12.45;10.15;;;;;;;31.32;48.88;99902.50;5083832;28;20131;-71
2021/07/12 09:10:01;;;;;;;10.80;9.80;;;;;;;31.21;49.08;99905.13;5083822;28;20122;-76
2021/07/12 09:12:40;;;;;;;10.52;9.40;;;;;;;31.31;48.67;99907.13;5084672;28;20068;-77
2021/07/12 09:15:09;;;;;;;10.15;8.77;;;;;;;31.66;46.92;99911.31;5083963;28;20056;-72
2021/07/12 09:17:38;;;;;;;13.95;11.52;;;;;;;32.28;46.22;99901.69;5083588;28;20040;-69
2021/07/12 09:20:08;;;;;;;14.15;8.43;;;;;;;32.61;45.02;99901.63;5083300;28;20040;-69
2021/07/12 09:22:37;;;;;;;11.18;9.50;;;;;;;32.38;45.06;99901.75;5085040;28;20579;-73
2021/07/12 09:25:09;;;;;;;9.60;8.70;;;;;;;32.33;45.43;99900.91;5082854;28;20059;-73
2021/07/12 09:27:38;;;;;;;14.68;10.98;;;;;;;32.61;45.35;99918.88;5084920;28;20048;-76
2021/07/12 09:30:07;;;;;;;12.75;10.15;;;;;;;32.65;44.18;99909.03;5085404;28;20488;-76
2021/07/12 09:32:35;;;;;;;10.93;9.93;;;;;;;32.65;44.18;99902.75;5083103;28;20141;-76
2021/07/12 09:35:06;;;;;;;10.30;9.30;;;;;;;32.64;43.91;99901.09;5084285;28;20040;-70
2021/07/12 09:37:34;;;;;;;9.15;8.15;;;;;;;33.03;43.46;99903.47;5086665;28;20040;-70
2021/07/12 09:40:01;;;;;;;9.35;7.78;;;;;;;33.33;42.11;99903.56;5082204;28;20068;-79
2021/07/12 09:42:35;;;;;;;10.50;8.38;;;;;;;33.19;42.50;99888.75;5085773;28;20391;-78
2021/07/12 09:45:05;;;;;;;13.57;9.93;;;;;;;33.17;42.50;99890.94;5083718;28;20080;-74
2021/07/12 09:47:34;;;;;;;16.83;11.50;;;;;;;33.61;42.38;99884.16;5082468;28;20135;-75
2021/07/12 09:50:04;;;;;;;11.25;8.30;;;;;;;33.91;41.77;99886.09;5083322;28;20044;-70
2021/07/12 09:52:39;;;;;;;9.18;8.25;;;;;;;33.85;41.47;99882.53;5083992;28;20052;-73
2021/07/12 09:55:06;;;;;;;11.90;8.07;;;;;;;33.68;41.68;99879.25;5084193;28;20123;-74
2021/07/12 09:57:35;;;;;;;7.88;6.32;;;;;;;33.76;41.01;99872.38;5083028;28;20044;-75
2021/07/12 10:00:04;;;;;;;8.88;7.55;;;;;;;33.66;40.86;99868.56;5083721;28;20404;-75
2021/07/12 10:02:35;;;;;;;7.90;7.10;;;;;;;33.33;40.91;99870.72;5084136;28;20673;-75
2021/07/12 10:05:05;;;;;;;16.55;10.88;;;;;;;33.00;42.43;99871.16;5083381;28;20075;-72
2021/07/12 10:07:32;;;;;;;8.50;6.85;;;;;;;33.12;41.61;99875.31;5082115;28;20043;-70
2021/07/12 10:10:00;;;;;;;12.73;11.43;;;;;;;33.59;40.91;99862.50;5084612;28;20660;-75
2021/07/12 10:12:28;;;;;;;10.38;9.27;;;;;;;33.83;41.18;99865.53;5084089;28;20043;-77
2021/07/12 10:14:57;;;;;;;9.98;8.98;;;;;;;33.52;41.06;99862.78;5084812;28;20044;-72
2021/07/12 10:17:24;;;;;;;15.20;10.23;;;;;;;33.02;41.56;99874.44;5084605;28;20055;-71
2021/07/12 10:19:51;;;;;;;9.98;8.98;;;;;;;32.79;42.42;99871.09;5082812;28;20050;-78
2021/07/12 10:22:23;;;;;;;11.55;8.80;;;;;;;32.84;42.51;99865.63;5084930;28;20492;-74
2021/07/12 10:24:51;;;;;;;11.40;9.73;;;;;;;32.96;42.04;99862.66;5084756;28;20060;-78
2021/07/12 10:27:23;;;;;;;8.88;8.07;;;;;;;33.34;41.21;99864.13;5080846;28;20052;-75
2021/07/12 10:29:51;;;;;;;8.88;7.97;;;;;;;33.77;40.01;99852.13;5082704;28;20059;-75
2021/07/12 10:32:22;;;;;;;9.15;8.00;;;;;;;33.84;40.51;99849.94;5085853;28;20048;-69
2021/07/12 10:34:52;;;;;;;10.63;9.32;;;;;;;33.83;41.15;99849.09;5083288;28;20105;-76
2021/07/12 10:37:28;;;;;;;14.38;9.93;;;;;;;34.01;40.89;99841.41;5084578;28;20048;-76
2021/07/12 10:40:18;;;;;;;9.90;8.25;;;;;;;34.24;40.40;99842.75;5083287;28;20048;-76
2021/07/12 10:43:05;;;;;;;12.35;11.25;;;;;;;34.22;40.72;99845.78;5083220;28;20044;-75
2021/07/12 10:45:51;;;;;;;11.25;7.78;;;;;;;33.54;40.84;99851.56;5086279;28;20051;-77
2021/07/12 10:48:20;;;;;;;10.25;8.20;;;;;;;33.11;41.79;99848.19;5083831;28;20071;-75
2021/07/12 10:50:53;;;;;;;11.32;8.77;;;;;;;32.81;42.31;99844.31;5084593;28;20040;-73
2021/07/12 10:53:56;;;;;;;10.45;9.45;;;;;;;32.84;43.33;99853.88;5087414;28;20089;-72
2021/07/12 10:56:40;;;;;;;9.93;8.32;;;;;;;32.99;42.58;99842.97;5091845;28;20040;-75
2021/07/12 10:59:08;;;;;;;10.10;9.07;;;;;;;33.01;42.20;99843.53;5096881;28;20058;-76
2021/07/12 11:01:40;;;;;;;11.15;8.30;;;;;;;33.04;42.03;99837.50;5096480;28;20120;-73
2021/07/12 11:04:37;;;;;;;11.20;8.63;;;;;;;33.12;42.03;99833.44;5094937;28;20044;-76
2021/07/12 11:07:07;;;;;;;12.40;9.93;;;;;;;33.30;41.82;99824.72;5095661;28;20051;-74
2021/07/12 11:09:51;;;;;;;8.80;7.85;;;;;;;33.42;41.26;99832.66;5087993;28;20063;-74
2021/07/12 11:12:37;;;;;;;10.32;8.52;;;;;;;33.39;41.43;99822.25;5088685;28;20138;-77
2021/07/12 11:15:39;;;;;;;10.88;7.80;;;;;;;33.38;41.26;99819.78;5024679;28;20395;-74
2021/07/12 11:18:09;;;;;;;10.00;9.00;;;;;;;33.41;41.08;99811.03;4962607;28;20082;-78
2021/07/12 11:21:03;;;;;;;9.80;8.73;;;;;;;33.53;41.31;99800.63;4964158;28;20107;-78
2021/07/12 11:23:47;;;;;;;14.63;10.98;;;;;;;33.56;41.06;99800.06;4925620;29;20052;-76
2021/07/12 11:26:44;;;;;;;10.50;8.50;;;;;;;33.65;40.75;99792.13;4924700;29;20047;-77
2021/07/12 11:29:34;;;;;;;8.77;7.95;;;;;;;33.69;40.38;99787.75;4850726;29;20105;-69